Time;durP1;ratioP1;P1;durP2;ratioP2;P2;SDS_P1;SDS_P2;PMS_P1;PMS_P2;Temp;Humidity;BMP_temperature;BMP_pressure;BME280_temperature;BME280_humidity;BME280_pressure;Samples;Min_cycle;Max_cycle;Signal;HPM_P1;HPM_P2
2023/10/09 00:03:00;;;;;;;1.27;0.40;;;2.40;99.90;;;;;;5055521;28;20195;-84
2023/10/09 00:05:40;;;;;;;0.43;0.35;;;2.40;99.90;;;;;;5056882;28;20184;-84
2023/10/09 00:08:09;;;;;;;1.98;0.43;;;2.40;99.90;;;;;;5063268;28;20189;-85
2023/10/09 00:10:45;;;;;;;1.75;0.35;;;2.40;99.90;;;;;;5049854;28;20301;-85
2023/10/09 00:13:13;;;;;;;1.58;0.47;;;2.40;99.90;;;;;;5054172;28;20193;-85
2023/10/09 00:15:41;;;;;;;1.05;0.60;;;2.40;99.90;;;;;;5041277;28;20600;-85
2023/10/09 00:18:12;;;;;;;1.48;0.52;;;2.40;99.90;;;;;;5055444;28;20191;-84
2023/10/09 00:20:42;;;;;;;1.05;0.55;;;2.30;99.90;;;;;;5048518;28;20224;-85
2023/10/09 00:23:15;;;;;;;1.08;0.60;;;2.40;99.90;;;;;;5043209;28;20299;-84
2023/10/09 00:26:08;;;;;;;1.95;0.55;;;2.40;99.90;;;;;;5055007;28;20234;-85
2023/10/09 00:28:43;;;;;;;2.42;0.43;;;2.30;99.90;;;;;;5052337;28;20674;-85
2023/10/09 00:31:26;;;;;;;2.85;0.38;;;2.30;99.90;;;;;;5039554;28;20232;-85
2023/10/09 00:33:55;;;;;;;0.52;0.38;;;2.40;99.90;;;;;;5061172;28;20547;-85
2023/10/09 00:36:28;;;;;;;0.95;0.50;;;2.30;99.90;;;;;;5059621;28;20178;-84
2023/10/09 00:38:59;;;;;;;0.88;0.50;;;2.20;99.90;;;;;;5056867;28;20193;-84
2023/10/09 00:41:28;;;;;;;1.08;0.50;;;2.20;99.90;;;;;;5057601;28;20228;-84
2023/10/09 00:43:59;;;;;;;2.35;0.52;;;2.30;99.90;;;;;;5058666;28;20665;-85
2023/10/09 00:46:27;;;;;;;0.93;0.60;;;2.20;99.90;;;;;;5051426;28;20195;-84
2023/10/09 00:49:00;;;;;;;1.08;0.40;;;2.00;99.90;;;;;;5050201;28;20657;-85
2023/10/09 00:51:35;;;;;;;0.85;0.38;;;2.10;99.90;;;;;;5061516;28;20805;-84
2023/10/09 00:54:12;;;;;;;1.92;0.50;;;2.10;99.90;;;;;;5055232;28;20327;-85
2023/10/09 00:56:51;;;;;;;2.72;0.63;;;2.10;99.90;;;;;;5038366;28;20666;-86
2023/10/09 00:59:22;;;;;;;0.65;0.50;;;2.30;99.90;;;;;;5056916;28;20180;-85
2023/10/09 01:02:04;;;;;;;1.08;0.43;;;2.20;99.90;;;;;;5058478;28;20184;-85
2023/10/09 01:04:32;;;;;;;0.52;0.32;;;2.30;99.90;;;;;;5039115;28;20274;-85
2023/10/09 01:07:14;;;;;;;0.77;0.35;;;2.10;99.90;;;;;;5050822;28;20246;-85
2023/10/09 01:09:44;;;;;;;2.55;0.50;;;2.20;99.90;;;;;;5047859;28;20204;-84
2023/10/09 01:12:21;;;;;;;0.90;0.50;;;2.20;99.90;;;;;;5059997;28;20177;-84
2023/10/09 01:14:54;;;;;;;3.97;0.40;;;2.20;99.90;;;;;;5047471;28;20238;-85
2023/10/09 01:17:45;;;;;;;2.67;0.50;;;2.20;99.90;;;;;;5060026;28;20292;-85
2023/10/09 01:20:16;;;;;;;0.65;0.40;;;2.20;99.90;;;;;;5058191;28;20196;-85
2023/10/09 01:22:44;;;;;;;1.83;0.40;;;2.10;99.90;;;;;;5060058;28;20529;-85
2023/10/09 01:25:11;;;;;;;2.03;0.40;;;2.10;99.90;;;;;;5050146;28;20185;-83
2023/10/09 01:27:40;;;;;;;0.40;0.40;;;2.20;99.90;;;;;;5066268;28;20211;-85
2023/10/09 01:30:14;;;;;;;1.25;0.50;;;2.20;99.90;;;;;;5064090;28;20205;-85
2023/10/09 01:32:45;;;;;;;1.00;0.50;;;2.20;99.90;;;;;;5048622;28;20299;-84
2023/10/09 01:35:22;;;;;;;0.80;0.40;;;2.20;99.90;;;;;;5057100;28;20190;-84
2023/10/09 01:37:51;;;;;;;0.55;0.40;;;2.20;99.90;;;;;;5039896;28;20566;-84
2023/10/09 01:40:36;;;;;;;1.48;0.50;;;2.20;99.90;;;;;;5057340;28;20617;-85
2023/10/09 01:43:04;;;;;;;1.13;0.40;;;2.20;99.90;;;;;;5057185;28;20196;-85
2023/10/09 01:45:41;;;;;;;0.90;0.50;;;2.10;99.90;;;;;;5041647;28;20192;-85
2023/10/09 01:48:12;;;;;;;1.00;0.40;;;2.10;99.90;;;;;;5051093;28;20238;-85
2023/10/09 01:50:41;;;;;;;0.70;0.30;;;2.10;99.90;;;;;;5063621;28;20219;-85
2023/10/09 01:53:09;;;;;;;0.68;0.40;;;2.10;99.90;;;;;;5051768;28;20189;-85
2023/10/09 01:55:40;;;;;;;1.23;0.40;;;2.20;99.90;;;;;;5037327;28;20193;-84
2023/10/09 01:58:16;;;;;;;0.45;0.30;;;2.00;99.90;;;;;;5062500;28;20222;-85
2023/10/09 02:00:49;;;;;;;0.85;0.50;;;2.00;99.90;;;;;;5063959;28;20282;-84
2023/10/09 02:03:17;;;;;;;0.60;0.40;;;1.80;99.90;;;;;;5052809;28;20671;-85
2023/10/09 02:05:45;;;;;;;0.65;0.47;;;1.70;99.90;;;;;;5056036;28;20636;-84
2023/10/09 02:08:13;;;;;;;2.30;0.47;;;1.80;99.90;;;;;;5046896;28;20196;-84
2023/10/09 02:10:47;;;;;;;1.23;0.40;;;1.80;99.90;;;;;;5039637;28;20212;-84
2023/10/09 02:13:17;;;;;;;1.75;0.45;;;1.80;99.90;;;;;;5054791;28;20237;-85
2023/10/09 02:26:32;;;;;;;0.82;0.50;;;1.90;99.90;;;;;;5059444;28;20212;-85
2023/10/09 02:29:04;;;;;;;0.40;0.40;;;1.90;99.90;;;;;;5058558;28;20662;-85
2023/10/09 02:31:41;;;;;;;0.90;0.30;;;2.00;99.90;;;;;;5060305;28;20201;-85
2023/10/09 02:34:10;;;;;;;3.42;0.50;;;2.00;99.90;;;;;;5061101;28;20188;-84
2023/10/09 02:36:42;;;;;;;0.98;0.40;;;1.90;99.90;;;;;;5059960;28;20193;-85
2023/10/09 02:39:28;;;;;;;0.80;0.50;;;2.00;99.90;;;;;;5058227;28;20268;-84
2023/10/09 02:42:01;;;;;;;0.47;0.30;;;1.90;99.90;;;;;;5069891;28;20609;-84
2023/10/09 02:44:39;;;;;;;0.43;0.40;;;2.00;99.90;;;;;;5050023;28;20208;-84
2023/10/09 02:47:17;;;;;;;1.20;0.60;;;1.80;99.90;;;;;;5065321;28;20200;-85
2023/10/09 02:49:48;;;;;;;0.80;0.43;;;1.90;99.90;;;;;;5052029;28;20223;-84
2023/10/09 02:52:24;;;;;;;0.75;0.40;;;2.00;99.90;;;;;;5061936;28;20208;-85
2023/10/09 02:54:59;;;;;;;2.65;0.50;;;1.90;99.90;;;;;;5063450;28;20189;-85
2023/10/09 02:57:36;;;;;;;1.35;0.35;;;1.90;99.90;;;;;;5067211;28;20193;-85
2023/10/09 03:00:18;;;;;;;5.60;0.73;;;1.70;99.90;;;;;;5062942;28;20192;-84
2023/10/09 03:02:49;;;;;;;1.13;0.50;;;1.80;99.90;;;;;;5051215;28;20615;-84
2023/10/09 03:05:17;;;;;;;1.48;0.63;;;1.80;99.90;;;;;;5062511;28;20186;-85
2023/10/09 03:07:46;;;;;;;0.60;0.50;;;1.80;99.90;;;;;;5064339;28;20192;-85
2023/10/09 03:10:13;;;;;;;0.93;0.50;;;1.90;99.90;;;;;;5065870;28;20574;-85
2023/10/09 03:12:43;;;;;;;1.63;0.43;;;1.90;99.90;;;;;;5067524;28;20195;-85
2023/10/09 03:15:11;;;;;;;1.33;0.60;;;1.90;99.90;;;;;;5055461;28;20573;-85
2023/10/09 03:17:39;;;;;;;0.60;0.43;;;1.90;99.90;;;;;;5058544;28;20186;-84
2023/10/09 03:20:13;;;;;;;2.67;0.55;;;1.80;99.90;;;;;;5060321;28;20189;-84
2023/10/09 03:22:42;;;;;;;9.57;0.95;;;1.70;99.90;;;;;;5062896;28;20275;-85
2023/10/09 03:25:14;;;;;;;0.52;0.30;;;1.60;99.90;;;;;;5061926;28;20189;-84
2023/10/09 03:27:44;;;;;;;0.93;0.57;;;1.80;99.90;;;;;;5053337;28;20189;-85
2023/10/09 03:30:16;;;;;;;0.20;0.20;;;1.70;99.90;;;;;;5055198;28;20203;-84
2023/10/09 03:32:50;;;;;;;1.02;0.50;;;1.70;99.90;;;;;;5065380;28;20258;-85
2023/10/09 03:35:24;;;;;;;2.15;0.50;;;1.70;99.90;;;;;;5055077;28;20192;-85
2023/10/09 03:37:57;;;;;;;0.63;0.45;;;1.60;99.90;;;;;;5062908;28;20670;-84
2023/10/09 03:40:25;;;;;;;0.82;0.55;;;1.60;99.90;;;;;;5062649;28;21030;-84
2023/10/09 03:42:52;;;;;;;1.75;0.60;;;1.60;99.90;;;;;;5068648;28;20570;-85
2023/10/09 03:45:26;;;;;;;1.75;0.57;;;1.70;99.90;;;;;;5059035;28;20189;-85
2023/10/09 03:48:01;;;;;;;1.52;0.47;;;1.80;99.90;;;;;;5061640;28;20176;-86
2023/10/09 03:50:38;;;;;;;0.63;0.38;;;1.70;99.90;;;;;;5061674;28;20191;-84
2023/10/09 03:53:09;;;;;;;0.70;0.30;;;1.60;99.90;;;;;;5057913;28;20181;-84
2023/10/09 03:55:39;;;;;;;0.90;0.47;;;1.60;99.90;;;;;;5067364;28;20640;-85
2023/10/09 03:58:11;;;;;;;1.10;0.55;;;1.70;99.90;;;;;;5054757;28;20189;-85
2023/10/09 04:00:45;;;;;;;3.03;0.63;;;1.80;99.90;;;;;;5059269;28;20261;-86
2023/10/09 04:03:17;;;;;;;1.48;0.50;;;1.60;99.90;;;;;;5064593;28;20270;-84
2023/10/09 04:05:45;;;;;;;1.30;0.57;;;1.40;99.90;;;;;;5063802;28;20301;-85
2023/10/09 04:08:29;;;;;;;1.25;0.40;;;1.30;99.90;;;;;;5062032;28;21019;-84
2023/10/09 04:11:01;;;;;;;2.83;0.50;;;1.40;99.90;;;;;;5059121;28;20284;-85
2023/10/09 04:13:34;;;;;;;0.85;0.40;;;1.50;99.90;;;;;;5068846;28;20267;-84
2023/10/09 04:18:49;;;;;;;1.27;0.52;;;1.30;99.90;;;;;;5061016;28;20299;-84
2023/10/09 04:21:24;;;;;;;2.65;0.50;;;1.20;99.90;;;;;;5053711;28;20192;-84
2023/10/09 04:24:09;;;;;;;0.65;0.40;;;1.30;99.90;;;;;;5057822;28;20646;-85
2023/10/09 04:26:39;;;;;;;0.90;0.50;;;1.50;99.90;;;;;;5055895;28;20196;-84
2023/10/09 04:29:10;;;;;;;2.88;0.43;;;1.40;99.90;;;;;;5060732;28;20188;-84
2023/10/09 04:31:38;;;;;;;2.20;0.60;;;1.20;99.90;;;;;;5064957;28;20236;-84
2023/10/09 04:36:56;;;;;;;1.23;0.70;;;1.30;99.90;;;;;;5054048;28;20207;-84
2023/10/09 04:47:38;;;;;;;0.57;0.40;;;1.30;99.90;;;;;;5055581;28;20181;-85
2023/10/09 04:50:14;;;;;;;1.23;0.60;;;1.30;99.90;;;;;;5061915;28;20258;-84
2023/10/09 04:58:00;;;;;;;1.15;0.52;;;1.40;99.90;;;;;;5050365;28;20181;-84
2023/10/09 05:16:28;;;;;;;1.63;0.50;;;1.60;99.90;;;;;;5058760;28;20280;-84
2023/10/09 05:18:56;;;;;;;1.75;0.60;;;1.70;99.90;;;;;;5056867;28;20266;-83
2023/10/09 05:37:32;;;;;;;2.08;0.63;;;1.70;99.90;;;;;;5057447;28;20253;-85
2023/10/09 05:42:57;;;;;;;1.90;0.60;;;1.70;99.90;;;;;;5067090;28;20237;-83
2023/10/09 06:04:49;;;;;;;0.70;0.50;;;1.90;99.90;;;;;;5066031;28;20605;-83
2023/10/09 06:07:13;;;;;;;1.95;0.40;;;1.90;99.90;;;;;;5062376;28;20212;-84
2023/10/09 06:09:52;;;;;;;1.38;0.57;;;1.90;99.90;;;;;;5063414;28;20254;-83
2023/10/09 06:12:33;;;;;;;0.85;0.40;;;1.90;99.90;;;;;;5074633;28;20201;-83
2023/10/09 06:15:30;;;;;;;2.58;0.60;;;2.00;99.90;;;;;;5061625;28;20180;-84
2023/10/09 06:18:25;;;;;;;1.15;0.68;;;2.00;99.90;;;;;;5063739;28;20185;-83
2023/10/09 06:21:08;;;;;;;1.77;0.47;;;2.00;99.90;;;;;;5063534;28;20212;-84
2023/10/09 06:24:14;;;;;;;1.95;0.70;;;2.10;99.90;;;;;;5052076;28;20185;-82
2023/10/09 06:26:32;;;;;;;0.35;0.30;;;2.10;99.90;;;;;;5054178;28;20197;-85
2023/10/09 06:29:16;;;;;;;2.58;0.60;;;2.20;99.90;;;;;;5057639;28;20232;-84
2023/10/09 06:31:57;;;;;;;0.82;0.47;;;2.20;99.90;;;;;;5063015;28;20228;-84
2023/10/09 06:34:35;;;;;;;1.05;0.30;;;2.30;99.90;;;;;;5065884;28;20177;-84
2023/10/09 06:37:17;;;;;;;1.77;0.55;;;2.40;99.90;;;;;;5058837;28;20195;-83
2023/10/09 06:41:23;;;;;;;0.38;0.38;;;2.40;99.90;;;;;;5066327;28;20290;-84
2023/10/09 06:47:53;;;;;;;0.38;0.30;;;2.50;99.90;;;;;;5069269;28;20193;-84
2023/10/09 06:53:18;;;;;;;0.88;0.30;;;2.50;99.90;;;;;;5069264;28;20204;-85
2023/10/09 06:56:26;;;;;;;1.05;0.40;;;2.60;99.90;;;;;;5062435;28;20189;-85
2023/10/09 06:58:42;;;;;;;0.93;0.40;;;2.60;99.90;;;;;;5060065;28;20192;-84
2023/10/09 07:17:16;;;;;;;1.45;0.45;;;2.90;99.90;;;;;;5067448;28;20176;-84
2023/10/09 07:24:56;;;;;;;0.63;0.40;;;2.90;99.90;;;;;;5057266;28;20200;-84
2023/10/09 07:27:51;;;;;;;2.78;0.40;;;3.00;99.90;;;;;;5068875;28;20185;-85
2023/10/09 07:38:14;;;;;;;1.83;0.57;;;3.00;99.90;;;;;;5060507;28;20181;-84
2023/10/09 07:41:33;;;;;;;1.33;0.40;;;2.90;99.90;;;;;;5059357;28;20282;-86
2023/10/09 07:43:47;;;;;;;0.45;0.28;;;3.00;99.90;;;;;;5056406;28;20201;-85
2023/10/09 07:46:51;;;;;;;0.47;0.30;;;3.00;99.90;;;;;;5062769;28;20557;-85
2023/10/09 07:49:25;;;;;;;2.95;0.40;;;2.90;99.90;;;;;;5061553;28;20684;-85
2023/10/09 07:51:52;;;;;;;1.88;0.40;;;3.00;99.90;;;;;;5058595;28;20201;-86
2023/10/09 07:54:49;;;;;;;0.30;0.30;;;3.00;99.90;;;;;;5064071;28;20643;-84
2023/10/09 07:57:15;;;;;;;1.30;0.30;;;3.00;99.90;;;;;;5062769;28;20215;-86
2023/10/09 08:02:38;;;;;;;0.52;0.20;;;3.40;99.90;;;;;;5060332;28;20224;-85
2023/10/09 08:05:18;;;;;;;1.05;0.20;;;3.30;99.90;;;;;;5053810;28;20262;-85
2023/10/09 08:08:38;;;;;;;0.50;0.20;;;3.30;99.90;;;;;;5066888;28;20192;-85
2023/10/09 08:13:49;;;;;;;0.40;0.28;;;3.10;99.90;;;;;;5055065;28;20192;-86
2023/10/09 08:16:24;;;;;;;0.77;0.30;;;3.20;99.90;;;;;;5057706;28;20284;-86
2023/10/09 08:18:57;;;;;;;0.20;0.20;;;3.20;99.90;;;;;;5057336;28;20197;-86
2023/10/09 08:21:59;;;;;;;0.68;0.32;;;3.30;99.90;;;;;;5060965;28;20925;-85
2023/10/09 08:25:04;;;;;;;0.55;0.28;;;3.40;99.90;;;;;;5051051;28;20177;-86
2023/10/09 08:33:01;;;;;;;1.05;0.40;;;3.60;99.90;;;;;;5059683;28;20228;-86
2023/10/09 08:35:47;;;;;;;6.22;0.80;;;3.60;99.90;;;;;;5060898;28;20192;-86
2023/10/09 08:38:23;;;;;;;2.42;0.40;;;3.60;99.90;;;;;;5062007;28;20697;-86
2023/10/09 08:40:58;;;;;;;0.70;0.40;;;3.60;99.90;;;;;;5064290;28;20225;-85
2023/10/09 08:43:30;;;;;;;0.60;0.50;;;3.60;99.90;;;;;;5050831;28;20565;-86
2023/10/09 08:46:01;;;;;;;1.20;0.40;;;3.60;99.90;;;;;;5061527;28;20204;-86
2023/10/09 08:48:30;;;;;;;3.22;0.50;;;3.60;99.90;;;;;;5064356;28;20188;-88
2023/10/09 08:50:58;;;;;;;0.80;0.40;;;3.60;99.90;;;;;;5058267;28;20803;-88
2023/10/09 08:53:31;;;;;;;1.42;0.50;;;3.50;99.90;;;;;;5060750;28;20223;-87
2023/10/09 08:55:59;;;;;;;2.83;0.50;;;3.60;99.90;;;;;;5058149;28;20292;-88
2023/10/09 08:58:32;;;;;;;1.48;0.50;;;3.60;99.90;;;;;;5056784;28;20301;-88
2023/10/09 09:01:00;;;;;;;1.20;0.50;;;3.70;99.90;;;;;;5050672;28;20188;-87
2023/10/09 09:03:43;;;;;;;2.67;0.63;;;3.70;99.90;;;;;;5050004;28;20212;-88
2023/10/09 09:06:11;;;;;;;0.57;0.40;;;3.70;99.90;;;;;;5051079;28;20290;-86
2023/10/09 09:08:44;;;;;;;3.03;0.43;;;3.80;99.90;;;;;;5054979;28;20663;-87
2023/10/09 09:11:22;;;;;;;1.00;0.47;;;3.90;99.90;;;;;;5059224;28;20687;-87
2023/10/09 09:13:53;;;;;;;1.35;0.70;;;3.80;99.90;;;;;;5055300;28;20193;-87
2023/10/09 09:16:29;;;;;;;1.65;0.60;;;3.80;99.90;;;;;;5059198;28;20544;-87
2023/10/09 09:19:04;;;;;;;2.53;0.60;;;3.90;99.90;;;;;;5055127;28;20192;-87
2023/10/09 09:21:40;;;;;;;1.50;0.57;;;3.90;99.90;;;;;;5060332;28;20275;-87
2023/10/09 09:27:09;;;;;;;0.75;0.57;;;3.80;99.90;;;;;;5051352;28;20255;-86
2023/10/09 09:29:37;;;;;;;1.33;0.50;;;3.90;99.90;;;;;;5065557;28;20296;-86
2023/10/09 09:32:19;;;;;;;2.55;0.60;;;3.90;99.90;;;;;;5053257;28;20227;-87
2023/10/09 09:34:50;;;;;;;3.15;0.63;;;4.00;99.90;;;;;;5049541;28;20185;-87
2023/10/09 09:37:24;;;;;;;2.25;0.63;;;4.00;99.90;;;;;;5056402;28;20197;-86
2023/10/09 09:39:52;;;;;;;1.35;0.60;;;4.00;99.90;;;;;;5047386;28;20250;-87
2023/10/09 09:42:27;;;;;;;1.23;0.70;;;4.00;99.90;;;;;;5065035;28;20232;-87
2023/10/09 09:44:57;;;;;;;1.08;0.50;;;4.00;99.90;;;;;;5065729;28;20198;-87
2023/10/09 09:47:27;;;;;;;1.33;0.43;;;4.20;99.90;;;;;;5059248;28;20220;-87
2023/10/09 09:49:59;;;;;;;1.73;0.60;;;4.30;99.90;;;;;;5044964;28;20617;-88
2023/10/09 09:52:40;;;;;;;1.50;0.50;;;4.30;99.90;;;;;;5067928;28;20204;-87
2023/10/09 09:55:22;;;;;;;2.35;0.45;;;4.40;99.90;;;;;;5060549;28;20185;-87
2023/10/09 09:57:53;;;;;;;1.80;0.70;;;4.40;99.90;;;;;;5062879;28;20270;-87
2023/10/09 10:03:34;;;;;;;2.85;0.60;;;4.60;99.90;;;;;;5042015;28;20200;-86
2023/10/09 10:06:09;;;;;;;0.80;0.50;;;4.70;99.90;;;;;;5047266;28;20607;-86
2023/10/09 10:08:39;;;;;;;1.23;0.63;;;4.70;99.90;;;;;;5057731;28;20734;-86
2023/10/09 10:11:13;;;;;;;2.55;0.88;;;4.70;99.90;;;;;;5062229;28;20202;-86
2023/10/09 10:13:41;;;;;;;1.42;0.40;;;4.60;99.90;;;;;;5063853;28;20201;-86
2023/10/09 10:16:19;;;;;;;1.65;0.60;;;4.60;99.90;;;;;;5057202;28;20188;-86
2023/10/09 10:19:21;;;;;;;0.63;0.40;;;4.60;99.90;;;;;;5061420;28;20187;-87
2023/10/09 10:21:50;;;;;;;2.10;0.60;;;4.60;99.90;;;;;;5058948;28;20554;-86
2023/10/09 10:24:30;;;;;;;0.88;0.52;;;4.60;99.90;;;;;;5059192;28;20193;-88
2023/10/09 10:27:28;;;;;;;1.00;0.60;;;4.60;99.90;;;;;;5053379;28;20200;-87
2023/10/09 10:30:12;;;;;;;1.17;0.60;;;4.70;99.90;;;;;;5064133;28;20601;-87
2023/10/09 10:32:52;;;;;;;0.73;0.40;;;4.70;99.90;;;;;;5048358;28;20263;-87
2023/10/09 10:35:32;;;;;;;2.58;0.40;;;4.70;99.90;;;;;;5063803;28;20693;-87
2023/10/09 10:40:40;;;;;;;1.08;0.40;;;4.80;99.90;;;;;;5056567;28;20667;-86
2023/10/09 10:43:31;;;;;;;1.63;0.65;;;4.80;99.90;;;;;;5067591;28;20216;-86
2023/10/09 10:46:53;;;;;;;3.13;0.60;;;4.80;99.90;;;;;;5063912;28;20196;-86
2023/10/09 10:48:59;;;;;;;2.92;0.52;;;4.80;99.90;;;;;;5066717;28;20193;-88
2023/10/09 10:51:52;;;;;;;1.15;0.43;;;4.90;99.90;;;;;;5067079;28;20200;-87
2023/10/09 10:57:02;;;;;;;4.40;0.80;;;5.10;99.90;;;;;;5066315;28;20207;-87
2023/10/09 10:59:36;;;;;;;1.00;0.52;;;5.00;99.90;;;;;;5061852;28;20177;-89
2023/10/09 11:02:16;;;;;;;1.75;0.55;;;5.20;99.90;;;;;;5058683;28;20550;-86
2023/10/09 11:04:53;;;;;;;1.42;0.45;;;5.30;99.90;;;;;;5061656;28;20195;-88
2023/10/09 11:07:26;;;;;;;1.38;0.70;;;5.30;99.90;;;;;;5060120;28;20184;-88
2023/10/09 11:13:12;;;;;;;1.20;0.50;;;5.20;99.90;;;;;;5067962;28;20204;-87
2023/10/09 11:15:46;;;;;;;1.60;0.57;;;5.20;99.90;;;;;;5061582;28;20220;-89
2023/10/09 11:18:26;;;;;;;3.08;0.60;;;5.10;99.90;;;;;;5048838;28;20288;-88
2023/10/09 11:26:25;;;;;;;1.48;0.57;;;4.90;99.90;;;;;;5063151;28;20176;-87
2023/10/09 11:29:13;;;;;;;1.40;0.45;;;4.90;99.90;;;;;;5073899;28;20228;-87
2023/10/09 11:32:00;;;;;;;2.03;0.60;;;4.90;99.90;;;;;;5047316;28;20753;-88
2023/10/09 11:34:29;;;;;;;1.10;0.47;;;4.80;99.90;;;;;;5064570;28;20212;-87
2023/10/09 11:37:02;;;;;;;0.70;0.35;;;4.80;99.90;;;;;;5063486;28;20207;-88
2023/10/09 11:39:34;;;;;;;1.25;0.30;;;4.70;99.90;;;;;;5061541;28;20188;-87
2023/10/09 11:42:06;;;;;;;0.90;0.50;;;4.70;99.90;;;;;;5065058;28;20244;-87
2023/10/09 11:44:41;;;;;;;1.45;0.63;;;4.60;99.90;;;;;;5039813;28;20232;-87
2023/10/09 11:52:37;;;;;;;1.67;0.60;;;4.60;99.90;;;;;;5059562;28;20738;-88
2023/10/09 11:55:16;;;;;;;0.90;0.50;;;4.60;99.90;;;;;;5060573;28;20201;-89
2023/10/09 11:57:44;;;;;;;2.33;0.55;;;4.60;99.90;;;;;;5061991;28;20555;-87
2023/10/09 12:00:30;;;;;;;1.45;0.43;;;4.60;99.90;;;;;;5056188;28;20190;-88
2023/10/09 12:03:05;;;;;;;1.17;0.50;;;4.60;99.90;;;;;;5059194;28;20203;-87
2023/10/09 12:05:33;;;;;;;2.22;0.68;;;4.60;99.90;;;;;;5057424;28;20659;-86
2023/10/09 12:08:02;;;;;;;1.20;0.47;;;4.60;99.90;;;;;;5068298;28;20255;-87
2023/10/09 12:10:30;;;;;;;2.40;0.52;;;4.60;99.90;;;;;;5061531;28;20659;-87
2023/10/09 12:12:57;;;;;;;1.02;0.40;;;4.60;99.90;;;;;;5058452;28;20201;-88
2023/10/09 12:15:36;;;;;;;0.68;0.47;;;4.60;99.90;;;;;;5049551;28;20197;-89
2023/10/09 12:18:18;;;;;;;0.85;0.50;;;4.60;99.90;;;;;;5058312;28;20215;-87
2023/10/09 12:20:50;;;;;;;1.98;0.52;;;4.60;99.90;;;;;;5059624;28;20199;-87
2023/10/09 12:23:22;;;;;;;0.73;0.40;;;4.60;99.90;;;;;;5049159;28;20973;-87
2023/10/09 12:25:51;;;;;;;1.02;0.40;;;4.60;99.90;;;;;;5049751;28;20686;-87
2023/10/09 12:28:20;;;;;;;1.17;0.43;;;4.60;99.90;;;;;;5070150;28;20184;-87
2023/10/09 12:30:51;;;;;;;0.75;0.50;;;4.70;99.90;;;;;;5065577;28;20649;-87
2023/10/09 12:33:27;;;;;;;0.63;0.47;;;4.70;99.90;;;;;;5054388;28;20211;-86
2023/10/09 12:36:00;;;;;;;2.58;0.40;;;4.80;99.90;;;;;;5057610;28;20670;-87
2023/10/09 12:38:32;;;;;;;2.00;0.50;;;4.80;99.90;;;;;;5060538;28;20180;-88
2023/10/09 12:41:25;;;;;;;0.50;0.38;;;4.80;99.90;;;;;;5048161;28;20213;-87
2023/10/09 12:43:54;;;;;;;3.00;0.50;;;4.80;99.90;;;;;;5057176;28;20663;-87
2023/10/09 12:46:23;;;;;;;1.15;0.50;;;4.80;99.90;;;;;;5057999;28;20298;-87
2023/10/09 12:48:54;;;;;;;0.38;0.30;;;4.80;99.90;;;;;;5068571;28;20259;-87
2023/10/09 12:51:29;;;;;;;1.48;0.40;;;4.70;99.90;;;;;;5061289;28;20269;-88
2023/10/09 12:53:57;;;;;;;0.43;0.30;;;4.60;99.90;;;;;;5050045;28;20209;-88
2023/10/09 12:56:32;;;;;;;1.27;0.40;;;4.70;99.90;;;;;;5054678;28;20515;-89
2023/10/09 12:59:01;;;;;;;0.77;0.50;;;4.70;99.90;;;;;;5058927;28;20211;-87
2023/10/09 13:01:44;;;;;;;0.73;0.40;;;4.70;99.90;;;;;;5064666;28;20657;-88
2023/10/09 13:04:15;;;;;;;0.30;0.30;;;4.60;99.90;;;;;;5063919;28;20655;-86
2023/10/09 13:06:45;;;;;;;2.00;0.40;;;4.80;99.90;;;;;;5068726;28;20185;-88
2023/10/09 13:09:24;;;;;;;0.70;0.40;;;4.80;99.90;;;;;;5066849;28;20184;-86
2023/10/09 13:11:52;;;;;;;1.15;0.50;;;5.10;99.90;;;;;;5059550;28;20662;-86
2023/10/09 13:14:21;;;;;;;1.17;0.30;;;5.50;99.90;;;;;;5065753;28;20565;-86
2023/10/09 13:16:52;;;;;;;0.73;0.30;;;5.80;99.90;;;;;;5067409;28;20582;-88
2023/10/09 13:19:24;;;;;;;0.60;0.30;;;6.00;99.90;;;;;;5057801;28;20183;-87
2023/10/09 13:21:52;;;;;;;0.73;0.32;;;6.10;99.90;;;;;;5067654;28;20192;-89
2023/10/09 13:24:24;;;;;;;0.38;0.30;;;6.10;99.90;;;;;;5057148;28;20212;-86
2023/10/09 13:26:53;;;;;;;0.70;0.40;;;6.10;99.90;;;;;;5055048;28;20594;-87
2023/10/09 13:29:23;;;;;;;1.70;0.40;;;6.00;99.90;;;;;;5063908;28;20875;-87
2023/10/09 13:31:57;;;;;;;1.30;0.45;;;6.00;99.90;;;;;;5059537;28;20188;-86
2023/10/09 13:34:28;;;;;;;0.47;0.35;;;6.10;99.90;;;;;;5058920;28;20200;-87
2023/10/09 13:36:58;;;;;;;1.10;0.50;;;6.00;99.90;;;;;;5057502;28;20193;-86
2023/10/09 13:39:26;;;;;;;1.27;0.40;;;6.10;99.90;;;;;;5041592;28;20283;-87
2023/10/09 13:41:59;;;;;;;0.38;0.38;;;6.10;99.90;;;;;;5035346;28;20235;-86
2023/10/09 13:44:28;;;;;;;0.50;0.30;;;5.90;99.90;;;;;;5048669;28;20189;-87
2023/10/09 13:47:06;;;;;;;0.73;0.30;;;6.10;99.90;;;;;;5054631;28;20659;-87
2023/10/09 13:49:36;;;;;;;1.08;0.40;;;6.20;99.90;;;;;;5051673;28;20272;-89
2023/10/09 13:52:06;;;;;;;0.90;0.40;;;6.00;99.90;;;;;;5052335;28;20203;-87
2023/10/09 13:57:04;;;;;;;0.52;0.30;;;5.60;99.90;;;;;;5080896;28;20192;-88
2023/10/09 13:59:36;;;;;;;1.58;0.40;;;5.40;99.90;;;;;;5052873;28;20193;-89
2023/10/09 14:02:16;;;;;;;1.27;0.43;;;5.20;99.90;;;;;;5050545;28;20204;-87
2023/10/09 14:04:50;;;;;;;3.17;0.60;;;5.10;99.90;;;;;;5075165;28;20196;-88
2023/10/09 14:07:17;;;;;;;0.55;0.47;;;5.10;99.90;;;;;;5048299;28;20200;-87
2023/10/09 14:09:55;;;;;;;1.10;0.40;;;5.10;99.90;;;;;;5062469;28;20209;-87
2023/10/09 14:12:24;;;;;;;0.40;0.40;;;5.20;99.90;;;;;;5064923;28;20195;-87
2023/10/09 14:14:53;;;;;;;2.95;0.40;;;5.00;99.90;;;;;;5045352;28;20197;-88
2023/10/09 14:17:23;;;;;;;0.50;0.40;;;4.90;99.90;;;;;;5059767;28;20913;-87
2023/10/09 14:19:52;;;;;;;1.40;0.60;;;4.90;99.90;;;;;;5045158;28;20190;-87
2023/10/09 14:22:26;;;;;;;2.70;0.60;;;4.90;99.90;;;;;;5059798;28;20261;-88
2023/10/09 14:24:59;;;;;;;1.35;0.50;;;4.80;99.90;;;;;;5067931;28;20770;-87
2023/10/09 14:27:29;;;;;;;1.23;0.55;;;4.80;99.90;;;;;;5061369;28;20254;-86
2023/10/09 14:30:00;;;;;;;3.00;0.68;;;4.90;99.90;;;;;;5065971;28;20610;-88
2023/10/09 14:32:43;;;;;;;1.23;0.47;;;4.90;99.90;;;;;;5057622;28;20279;-88
2023/10/09 14:35:14;;;;;;;1.27;0.40;;;4.90;99.90;;;;;;5074967;28;20258;-87
2023/10/09 14:37:42;;;;;;;1.08;0.30;;;4.90;99.90;;;;;;5047074;28;20746;-88
2023/10/09 14:40:12;;;;;;;1.42;0.47;;;4.90;99.90;;;;;;5068963;28;20553;-88
2023/10/09 14:42:44;;;;;;;1.83;0.50;;;4.90;99.90;;;;;;5058413;28;20228;-87
2023/10/09 14:45:16;;;;;;;2.05;0.50;;;4.90;99.90;;;;;;5052121;28;20243;-87
2023/10/09 14:47:47;;;;;;;1.45;0.40;;;4.90;99.90;;;;;;5059791;28;20276;-89
2023/10/09 14:50:15;;;;;;;2.45;0.60;;;4.90;99.90;;;;;;5050906;28;20547;-89
2023/10/09 14:52:43;;;;;;;1.33;0.50;;;4.80;99.90;;;;;;5061578;28;20203;-89
2023/10/09 14:55:11;;;;;;;2.03;0.63;;;4.80;99.90;;;;;;5067633;28;20213;-86
2023/10/09 14:57:39;;;;;;;3.10;0.77;;;4.80;99.90;;;;;;5067610;28;20295;-88
2023/10/09 15:00:10;;;;;;;2.53;0.65;;;4.90;99.90;;;;;;5070417;28;20202;-88
2023/10/09 15:02:38;;;;;;;4.38;0.60;;;4.90;99.90;;;;;;5057316;28;20251;-89
2023/10/09 15:05:11;;;;;;;1.52;0.57;;;4.90;99.90;;;;;;5054932;28;20188;-87
2023/10/09 15:07:40;;;;;;;0.55;0.38;;;4.80;99.90;;;;;;5052223;28;20292;-88
2023/10/09 15:10:15;;;;;;;0.88;0.40;;;4.90;99.90;;;;;;5043852;28;20196;-88
2023/10/09 15:12:43;;;;;;;3.75;0.70;;;4.90;99.90;;;;;;5062535;28;20199;-87
2023/10/09 15:15:13;;;;;;;1.30;0.60;;;4.80;99.90;;;;;;5050718;28;20209;-87
2023/10/09 15:17:44;;;;;;;1.27;0.50;;;4.70;99.90;;;;;;5070630;28;20188;-89
2023/10/09 15:20:15;;;;;;;8.93;1.00;;;4.60;99.90;;;;;;5050899;28;20216;-90
2023/10/09 15:22:44;;;;;;;2.80;0.60;;;4.70;99.90;;;;;;5060581;28;20710;-88
2023/10/09 15:25:14;;;;;;;1.02;0.60;;;4.60;99.90;;;;;;5052984;28;20208;-88
2023/10/09 15:27:43;;;;;;;3.03;0.63;;;4.60;99.90;;;;;;5064318;28;20200;-88
2023/10/09 15:30:16;;;;;;;2.90;0.70;;;4.70;99.90;;;;;;5070662;28;20200;-87
2023/10/09 15:32:45;;;;;;;2.45;0.60;;;4.60;99.90;;;;;;5050414;28;20201;-87
2023/10/09 15:35:12;;;;;;;2.90;0.50;;;4.60;99.90;;;;;;5064204;28;20777;-89
2023/10/09 15:37:42;;;;;;;1.17;0.50;;;4.60;99.90;;;;;;5049182;28;20262;-87
2023/10/09 15:40:14;;;;;;;4.07;0.70;;;4.60;99.90;;;;;;5060086;28;20187;-88
2023/10/09 15:42:49;;;;;;;4.03;0.60;;;4.70;99.90;;;;;;5055936;28;20231;-88
2023/10/09 15:45:21;;;;;;;2.42;0.50;;;4.70;99.90;;;;;;5069127;28;20211;-90
2023/10/09 15:47:51;;;;;;;1.13;0.40;;;4.70;99.90;;;;;;5051819;28;20260;-88
2023/10/09 15:50:23;;;;;;;2.78;0.50;;;4.70;99.90;;;;;;5056214;28;20283;-88
2023/10/09 15:52:55;;;;;;;0.93;0.40;;;4.70;99.90;;;;;;5054409;28;20196;-88
2023/10/09 15:55:26;;;;;;;0.60;0.40;;;4.70;99.90;;;;;;5067446;28;20207;-88
2023/10/09 15:57:54;;;;;;;2.88;0.52;;;4.70;99.90;;;;;;5059097;28;20192;-88
2023/10/09 16:00:28;;;;;;;0.90;0.47;;;4.70;99.90;;;;;;5066753;28;20185;-89
2023/10/09 16:02:56;;;;;;;0.68;0.50;;;4.70;99.90;;;;;;5067303;28;20267;-89
2023/10/09 16:05:25;;;;;;;0.57;0.38;;;4.70;99.90;;;;;;5070429;28;20533;-88
2023/10/09 16:07:54;;;;;;;1.38;0.40;;;4.60;99.90;;;;;;5057903;28;20566;-88
2023/10/09 16:10:23;;;;;;;2.40;1.25;;;4.60;99.90;;;;;;5037361;28;20196;-89
2023/10/09 16:12:53;;;;;;;0.52;0.30;;;4.50;99.90;;;;;;5063393;28;20192;-88
2023/10/09 16:15:24;;;;;;;0.40;0.30;;;4.40;99.90;;;;;;5067257;28;20212;-88